sensor_id;sensor_type;location;lat;lon;timestamp;temperature;humidity
69189;DHT22;56302;52.322;5.926;2023-10-08T00:00:13;17.20;90.70
69189;DHT22;56302;52.322;5.926;2023-10-08T00:02:57;17.20;90.80
69189;DHT22;56302;52.322;5.926;2023-10-08T00:05:23;17.20;90.80
69189;DHT22;56302;52.322;5.926;2023-10-08T00:07:48;17.20;90.70
69189;DHT22;56302;52.322;5.926;2023-10-08T00:10:15;17.20;90.90
69189;DHT22;56302;52.322;5.926;2023-10-08T00:12:41;17.20;90.60
69189;DHT22;56302;52.322;5.926;2023-10-08T00:15:07;17.20;90.60
69189;DHT22;56302;52.322;5.926;2023-10-08T00:17:35;17.20;90.70
69189;DHT22;56302;52.322;5.926;2023-10-08T00:20:01;17.20;90.70
69189;DHT22;56302;52.322;5.926;2023-10-08T00:22:28;17.20;90.80
69189;DHT22;56302;52.322;5.926;2023-10-08T00:25:01;17.10;90.80
69189;DHT22;56302;52.322;5.926;2023-10-08T00:27:26;17.10;90.90
69189;DHT22;56302;52.322;5.926;2023-10-08T00:29:52;17.10;91.20
69189;DHT22;56302;52.322;5.926;2023-10-08T00:32:18;17.10;91.30
69189;DHT22;56302;52.322;5.926;2023-10-08T00:34:43;17.10;91.20
69189;DHT22;56302;52.322;5.926;2023-10-08T00:37:10;17.10;91.40
69189;DHT22;56302;52.322;5.926;2023-10-08T00:39:39;17.10;91.40
69189;DHT22;56302;52.322;5.926;2023-10-08T00:42:06;17.10;91.20
69189;DHT22;56302;52.322;5.926;2023-10-08T00:44:36;17.10;91.70
69189;DHT22;56302;52.322;5.926;2023-10-08T00:47:16;17.10;91.60
69189;DHT22;56302;52.322;5.926;2023-10-08T00:49:42;17.00;90.90
69189;DHT22;56302;52.322;5.926;2023-10-08T00:52:12;17.10;91.00
69189;DHT22;56302;52.322;5.926;2023-10-08T00:54:39;17.10;91.00
69189;DHT22;56302;52.322;5.926;2023-10-08T00:57:22;17.00;90.70
69189;DHT22;56302;52.322;5.926;2023-10-08T00:59:49;17.00;90.80
69189;DHT22;56302;52.322;5.926;2023-10-08T01:02:26;17.00;90.90
69189;DHT22;56302;52.322;5.926;2023-10-08T01:04:54;17.00;91.10
69189;DHT22;56302;52.322;5.926;2023-10-08T01:07:22;16.90;91.20
69189;DHT22;56302;52.322;5.926;2023-10-08T01:09:49;16.90;91.30
69189;DHT22;56302;52.322;5.926;2023-10-08T01:12:20;16.90;91.20
69189;DHT22;56302;52.322;5.926;2023-10-08T01:14:53;16.80;91.70
69189;DHT22;56302;52.322;5.926;2023-10-08T01:17:23;16.80;91.30
69189;DHT22;56302;52.322;5.926;2023-10-08T01:19:57;16.80;91.10
69189;DHT22;56302;52.322;5.926;2023-10-08T01:22:33;16.90;91.20
69189;DHT22;56302;52.322;5.926;2023-10-08T01:24:58;16.80;91.10
69189;DHT22;56302;52.322;5.926;2023-10-08T01:27:30;16.80;91.10
69189;DHT22;56302;52.322;5.926;2023-10-08T01:30:00;16.80;91.30
69189;DHT22;56302;52.322;5.926;2023-10-08T01:32:43;16.80;91.30
69189;DHT22;56302;52.322;5.926;2023-10-08T01:35:09;16.80;91.90
69189;DHT22;56302;52.322;5.926;2023-10-08T01:37:49;16.80;91.60
69189;DHT22;56302;52.322;5.926;2023-10-08T01:40:16;16.80;91.70
69189;DHT22;56302;52.322;5.926;2023-10-08T01:42:42;16.80;92.00
69189;DHT22;56302;52.322;5.926;2023-10-08T01:45:08;16.80;91.80
69189;DHT22;56302;52.322;5.926;2023-10-08T01:47:35;16.80;92.00
69189;DHT22;56302;52.322;5.926;2023-10-08T01:50:01;16.80;92.40
69189;DHT22;56302;52.322;5.926;2023-10-08T01:52:31;16.80;92.90
69189;DHT22;56302;52.322;5.926;2023-10-08T01:54:57;16.80;93.90
69189;DHT22;56302;52.322;5.926;2023-10-08T01:57:23;16.70;94.10
69189;DHT22;56302;52.322;5.926;2023-10-08T01:59:48;16.70;94.30
69189;DHT22;56302;52.322;5.926;2023-10-08T02:02:14;16.70;94.40
69189;DHT22;56302;52.322;5.926;2023-10-08T02:04:42;16.70;94.30
69189;DHT22;56302;52.322;5.926;2023-10-08T02:07:09;16.70;94.40
69189;DHT22;56302;52.322;5.926;2023-10-08T02:09:41;16.70;94.40
69189;DHT22;56302;52.322;5.926;2023-10-08T02:12:06;16.70;94.60
69189;DHT22;56302;52.322;5.926;2023-10-08T02:14:33;16.70;94.30
69189;DHT22;56302;52.322;5.926;2023-10-08T02:17:01;16.70;94.30
69189;DHT22;56302;52.322;5.926;2023-10-08T02:19:31;16.70;94.30
69189;DHT22;56302;52.322;5.926;2023-10-08T02:21:57;16.70;94.40
69189;DHT22;56302;52.322;5.926;2023-10-08T02:24:24;16.70;94.30
69189;DHT22;56302;52.322;5.926;2023-10-08T02:26:51;16.70;94.50
69189;DHT22;56302;52.322;5.926;2023-10-08T02:29:17;16.60;94.30
69189;DHT22;56302;52.322;5.926;2023-10-08T02:31:42;16.50;94.00
69189;DHT22;56302;52.322;5.926;2023-10-08T02:34:09;16.40;94.00
69189;DHT22;56302;52.322;5.926;2023-10-08T02:36:38;16.30;93.80
69189;DHT22;56302;52.322;5.926;2023-10-08T02:39:06;16.20;93.90
69189;DHT22;56302;52.322;5.926;2023-10-08T02:41:39;16.10;94.00
69189;DHT22;56302;52.322;5.926;2023-10-08T02:44:09;16.00;93.90
69189;DHT22;56302;52.322;5.926;2023-10-08T02:46:38;15.60;93.10
69189;DHT22;56302;52.322;5.926;2023-10-08T02:49:07;15.40;93.50
69189;DHT22;56302;52.322;5.926;2023-10-08T02:51:36;15.20;93.50
69189;DHT22;56302;52.322;5.926;2023-10-08T02:54:01;15.10;93.50
69189;DHT22;56302;52.322;5.926;2023-10-08T02:56:31;15.00;93.60
69189;DHT22;56302;52.322;5.926;2023-10-08T02:58:57;14.90;93.30
69189;DHT22;56302;52.322;5.926;2023-10-08T03:01:23;14.80;93.80
69189;DHT22;56302;52.322;5.926;2023-10-08T03:03:48;14.70;93.80
69189;DHT22;56302;52.322;5.926;2023-10-08T03:06:14;14.60;93.80
69189;DHT22;56302;52.322;5.926;2023-10-08T03:08:40;14.40;92.80
69189;DHT22;56302;52.322;5.926;2023-10-08T03:11:09;14.30;92.60
69189;DHT22;56302;52.322;5.926;2023-10-08T03:13:43;14.20;92.60
69189;DHT22;56302;52.322;5.926;2023-10-08T03:16:12;14.10;92.50
69189;DHT22;56302;52.322;5.926;2023-10-08T03:18:39;14.10;92.40
69189;DHT22;56302;52.322;5.926;2023-10-08T03:21:10;14.00;92.40
69189;DHT22;56302;52.322;5.926;2023-10-08T03:24:08;13.90;92.70
69189;DHT22;56302;52.322;5.926;2023-10-08T03:26:49;13.80;92.80
69189;DHT22;56302;52.322;5.926;2023-10-08T03:29:20;13.70;93.20
69189;DHT22;56302;52.322;5.926;2023-10-08T03:31:46;13.70;93.80
69189;DHT22;56302;52.322;5.926;2023-10-08T03:34:12;13.70;93.70
69189;DHT22;56302;52.322;5.926;2023-10-08T03:36:39;13.70;93.40
69189;DHT22;56302;52.322;5.926;2023-10-08T03:39:16;13.60;93.10
69189;DHT22;56302;52.322;5.926;2023-10-08T03:41:46;13.60;93.10
69189;DHT22;56302;52.322;5.926;2023-10-08T03:44:24;13.60;93.00
69189;DHT22;56302;52.322;5.926;2023-10-08T03:46:50;13.60;93.10
69189;DHT22;56302;52.322;5.926;2023-10-08T03:49:17;13.50;93.10
69189;DHT22;56302;52.322;5.926;2023-10-08T03:51:46;13.50;93.40
69189;DHT22;56302;52.322;5.926;2023-10-08T03:54:13;13.50;93.20
69189;DHT22;56302;52.322;5.926;2023-10-08T03:56:43;13.40;93.30
69189;DHT22;56302;52.322;5.926;2023-10-08T03:59:15;13.30;93.30
69189;DHT22;56302;52.322;5.926;2023-10-08T04:02:03;13.30;93.20
69189;DHT22;56302;52.322;5.926;2023-10-08T04:04:39;13.30;93.00
69189;DHT22;56302;52.322;5.926;2023-10-08T04:07:19;13.30;92.90
69189;DHT22;56302;52.322;5.926;2023-10-08T04:10:05;13.20;92.80
69189;DHT22;56302;52.322;5.926;2023-10-08T04:12:33;13.30;92.90
69189;DHT22;56302;52.322;5.926;2023-10-08T04:15:07;13.20;93.10
69189;DHT22;56302;52.322;5.926;2023-10-08T04:17:36;13.30;92.90
69189;DHT22;56302;52.322;5.926;2023-10-08T04:20:10;13.30;92.70
69189;DHT22;56302;52.322;5.926;2023-10-08T04:22:56;13.30;92.60
69189;DHT22;56302;52.322;5.926;2023-10-08T04:25:28;13.30;92.70
69189;DHT22;56302;52.322;5.926;2023-10-08T04:27:55;13.30;92.80
69189;DHT22;56302;52.322;5.926;2023-10-08T04:30:26;13.30;92.80
69189;DHT22;56302;52.322;5.926;2023-10-08T04:33:02;13.30;92.70
69189;DHT22;56302;52.322;5.926;2023-10-08T04:35:35;13.20;92.70
69189;DHT22;56302;52.322;5.926;2023-10-08T04:38:25;13.20;92.70
69189;DHT22;56302;52.322;5.926;2023-10-08T04:40:52;13.10;92.90
69189;DHT22;56302;52.322;5.926;2023-10-08T04:43:19;13.10;93.40
69189;DHT22;56302;52.322;5.926;2023-10-08T04:45:51;13.10;93.70
69189;DHT22;56302;52.322;5.926;2023-10-08T04:48:16;13.10;93.60
69189;DHT22;56302;52.322;5.926;2023-10-08T04:50:48;13.10;93.80
69189;DHT22;56302;52.322;5.926;2023-10-08T04:53:31;13.10;93.70
69189;DHT22;56302;52.322;5.926;2023-10-08T04:56:07;13.10;93.60
69189;DHT22;56302;52.322;5.926;2023-10-08T04:58:39;13.10;93.40
69189;DHT22;56302;52.322;5.926;2023-10-08T05:01:06;13.20;93.40
69189;DHT22;56302;52.322;5.926;2023-10-08T05:03:53;13.20;93.40
69189;DHT22;56302;52.322;5.926;2023-10-08T05:06:25;13.10;93.40
69189;DHT22;56302;52.322;5.926;2023-10-08T05:09:01;13.20;93.30
69189;DHT22;56302;52.322;5.926;2023-10-08T05:11:35;13.20;93.00
69189;DHT22;56302;52.322;5.926;2023-10-08T05:14:25;13.20;93.20
69189;DHT22;56302;52.322;5.926;2023-10-08T05:17:07;13.10;93.40
69189;DHT22;56302;52.322;5.926;2023-10-08T05:19:37;13.10;93.50
69189;DHT22;56302;52.322;5.926;2023-10-08T05:22:14;13.20;93.30
69189;DHT22;56302;52.322;5.926;2023-10-08T05:24:48;13.10;93.30
69189;DHT22;56302;52.322;5.926;2023-10-08T05:27:37;13.10;93.50
69189;DHT22;56302;52.322;5.926;2023-10-08T05:32:43;13.10;93.50
69189;DHT22;56302;52.322;5.926;2023-10-08T05:35:27;13.10;93.90
69189;DHT22;56302;52.322;5.926;2023-10-08T05:38:09;13.10;94.00
69189;DHT22;56302;52.322;5.926;2023-10-08T05:40:54;13.00;94.20
69189;DHT22;56302;52.322;5.926;2023-10-08T05:43:34;13.00;94.50
69189;DHT22;56302;52.322;5.926;2023-10-08T05:46:03;13.00;94.50
69189;DHT22;56302;52.322;5.926;2023-10-08T05:49:04;12.90;94.70
69189;DHT22;56302;52.322;5.926;2023-10-08T05:51:34;12.90;94.60
69189;DHT22;56302;52.322;5.926;2023-10-08T05:54:21;12.90;94.60
69189;DHT22;56302;52.322;5.926;2023-10-08T05:57:10;13.00;94.50
69189;DHT22;56302;52.322;5.926;2023-10-08T05:59:46;13.00;94.50
69189;DHT22;56302;52.322;5.926;2023-10-08T06:02:27;13.00;94.60
69189;DHT22;56302;52.322;5.926;2023-10-08T06:04:57;12.90;94.80
69189;DHT22;56302;52.322;5.926;2023-10-08T06:07:48;12.90;94.90
69189;DHT22;56302;52.322;5.926;2023-10-08T06:10:16;12.90;95.00
69189;DHT22;56302;52.322;5.926;2023-10-08T06:15:49;12.90;95.20
69189;DHT22;56302;52.322;5.926;2023-10-08T06:18:33;12.80;95.30
69189;DHT22;56302;52.322;5.926;2023-10-08T06:21:03;12.80;95.30
69189;DHT22;56302;52.322;5.926;2023-10-08T06:23:38;12.80;95.50
69189;DHT22;56302;52.322;5.926;2023-10-08T06:26:04;12.80;95.40
69189;DHT22;56302;52.322;5.926;2023-10-08T06:28:40;12.80;95.30
69189;DHT22;56302;52.322;5.926;2023-10-08T06:31:07;12.80;95.60
69189;DHT22;56302;52.322;5.926;2023-10-08T06:33:38;12.80;96.00
69189;DHT22;56302;52.322;5.926;2023-10-08T06:36:04;12.80;95.80
69189;DHT22;56302;52.322;5.926;2023-10-08T06:38:49;12.80;95.80
69189;DHT22;56302;52.322;5.926;2023-10-08T06:41:16;12.80;95.80
69189;DHT22;56302;52.322;5.926;2023-10-08T06:43:46;12.80;95.90
69189;DHT22;56302;52.322;5.926;2023-10-08T06:46:16;12.80;95.90
69189;DHT22;56302;52.322;5.926;2023-10-08T06:48:45;12.90;95.80
69189;DHT22;56302;52.322;5.926;2023-10-08T06:51:12;12.90;95.70
69189;DHT22;56302;52.322;5.926;2023-10-08T06:53:39;12.90;95.60
69189;DHT22;56302;52.322;5.926;2023-10-08T06:56:05;12.90;95.50
69189;DHT22;56302;52.322;5.926;2023-10-08T06:58:31;12.80;95.60
69189;DHT22;56302;52.322;5.926;2023-10-08T07:01:00;12.90;95.70
69189;DHT22;56302;52.322;5.926;2023-10-08T07:03:30;12.90;95.80
69189;DHT22;56302;52.322;5.926;2023-10-08T07:05:56;12.90;95.70
69189;DHT22;56302;52.322;5.926;2023-10-08T07:08:31;13.00;95.50
69189;DHT22;56302;52.322;5.926;2023-10-08T07:10:58;13.00;95.50
69189;DHT22;56302;52.322;5.926;2023-10-08T07:13:27;13.00;95.40
69189;DHT22;56302;52.322;5.926;2023-10-08T07:15:55;13.00;95.40
69189;DHT22;56302;52.322;5.926;2023-10-08T07:18:21;13.00;95.30
69189;DHT22;56302;52.322;5.926;2023-10-08T07:20:55;13.00;95.40
69189;DHT22;56302;52.322;5.926;2023-10-08T07:23:22;13.00;95.40
69189;DHT22;56302;52.322;5.926;2023-10-08T07:26:01;13.00;95.30
69189;DHT22;56302;52.322;5.926;2023-10-08T07:28:43;13.10;95.30
69189;DHT22;56302;52.322;5.926;2023-10-08T07:31:23;13.10;95.20
69189;DHT22;56302;52.322;5.926;2023-10-08T07:33:55;13.10;95.20
69189;DHT22;56302;52.322;5.926;2023-10-08T07:36:26;13.10;95.30
69189;DHT22;56302;52.322;5.926;2023-10-08T07:38:53;13.10;95.30
69189;DHT22;56302;52.322;5.926;2023-10-08T07:41:20;13.10;95.00
69189;DHT22;56302;52.322;5.926;2023-10-08T07:43:49;13.00;95.20
69189;DHT22;56302;52.322;5.926;2023-10-08T07:46:21;13.00;95.40
69189;DHT22;56302;52.322;5.926;2023-10-08T07:48:47;13.10;95.30
69189;DHT22;56302;52.322;5.926;2023-10-08T07:51:14;13.00;95.20
69189;DHT22;56302;52.322;5.926;2023-10-08T07:53:39;13.00;95.40
69189;DHT22;56302;52.322;5.926;2023-10-08T07:56:07;13.00;95.20
69189;DHT22;56302;52.322;5.926;2023-10-08T07:58:34;13.10;95.20
69189;DHT22;56302;52.322;5.926;2023-10-08T08:01:06;13.10;94.90
69189;DHT22;56302;52.322;5.926;2023-10-08T08:03:33;13.20;94.70
69189;DHT22;56302;52.322;5.926;2023-10-08T08:06:03;13.30;94.10
69189;DHT22;56302;52.322;5.926;2023-10-08T08:08:34;13.30;93.60
69189;DHT22;56302;52.322;5.926;2023-10-08T08:11:04;13.40;93.50
69189;DHT22;56302;52.322;5.926;2023-10-08T08:13:38;13.40;93.20
69189;DHT22;56302;52.322;5.926;2023-10-08T08:16:04;13.50;93.00
69189;DHT22;56302;52.322;5.926;2023-10-08T08:21:12;13.50;92.60
69189;DHT22;56302;52.322;5.926;2023-10-08T08:23:46;13.60;92.70
69189;DHT22;56302;52.322;5.926;2023-10-08T08:26:19;13.70;92.30
69189;DHT22;56302;52.322;5.926;2023-10-08T08:28:59;13.70;90.20
69189;DHT22;56302;52.322;5.926;2023-10-08T08:31:25;13.60;89.60
69189;DHT22;56302;52.322;5.926;2023-10-08T08:33:52;13.50;89.50
69189;DHT22;56302;52.322;5.926;2023-10-08T08:36:20;13.50;90.00
69189;DHT22;56302;52.322;5.926;2023-10-08T08:38:50;13.50;89.90
69189;DHT22;56302;52.322;5.926;2023-10-08T08:41:16;13.60;89.80
69189;DHT22;56302;52.322;5.926;2023-10-08T08:43:48;13.60;89.80
69189;DHT22;56302;52.322;5.926;2023-10-08T08:46:14;13.60;89.90
69189;DHT22;56302;52.322;5.926;2023-10-08T08:48:41;13.60;89.80
69189;DHT22;56302;52.322;5.926;2023-10-08T08:51:07;13.70;89.80
69189;DHT22;56302;52.322;5.926;2023-10-08T08:53:35;13.70;89.20
69189;DHT22;56302;52.322;5.926;2023-10-08T08:56:01;13.70;88.90
69189;DHT22;56302;52.322;5.926;2023-10-08T08:58:33;13.80;89.70
69189;DHT22;56302;52.322;5.926;2023-10-08T09:01:03;13.80;89.90
69189;DHT22;56302;52.322;5.926;2023-10-08T09:03:30;13.80;89.10
69189;DHT22;56302;52.322;5.926;2023-10-08T09:05:59;13.90;89.20
69189;DHT22;56302;52.322;5.926;2023-10-08T09:08:32;13.90;89.10
69189;DHT22;56302;52.322;5.926;2023-10-08T09:10:59;13.90;88.30
69189;DHT22;56302;52.322;5.926;2023-10-08T09:13:27;14.00;88.90
69189;DHT22;56302;52.322;5.926;2023-10-08T09:16:17;14.00;89.10
69189;DHT22;56302;52.322;5.926;2023-10-08T09:18:59;14.10;89.00
69189;DHT22;56302;52.322;5.926;2023-10-08T09:21:26;14.00;86.90
69189;DHT22;56302;52.322;5.926;2023-10-08T09:23:52;14.00;86.30
69189;DHT22;56302;52.322;5.926;2023-10-08T09:26:26;13.90;86.00
69189;DHT22;56302;52.322;5.926;2023-10-08T09:28:54;13.90;86.50
69189;DHT22;56302;52.322;5.926;2023-10-08T09:31:23;14.00;86.70
69189;DHT22;56302;52.322;5.926;2023-10-08T09:33:56;14.20;86.80
69189;DHT22;56302;52.322;5.926;2023-10-08T09:36:23;14.20;86.70
69189;DHT22;56302;52.322;5.926;2023-10-08T09:39:00;14.30;86.10
69189;DHT22;56302;52.322;5.926;2023-10-08T09:41:29;14.50;87.00
69189;DHT22;56302;52.322;5.926;2023-10-08T09:43:59;14.50;84.10
69189;DHT22;56302;52.322;5.926;2023-10-08T09:46:31;14.60;84.80
69189;DHT22;56302;52.322;5.926;2023-10-08T09:49:02;14.60;84.40
69189;DHT22;56302;52.322;5.926;2023-10-08T09:51:35;14.60;84.10
69189;DHT22;56302;52.322;5.926;2023-10-08T09:54:26;14.60;84.00
69189;DHT22;56302;52.322;5.926;2023-10-08T09:56:51;14.60;83.60
69189;DHT22;56302;52.322;5.926;2023-10-08T09:59:18;14.60;82.40
69189;DHT22;56302;52.322;5.926;2023-10-08T10:01:46;14.60;83.00
69189;DHT22;56302;52.322;5.926;2023-10-08T10:04:13;14.70;82.80
69189;DHT22;56302;52.322;5.926;2023-10-08T10:06:49;14.90;82.60
69189;DHT22;56302;52.322;5.926;2023-10-08T10:09:23;15.00;83.00
69189;DHT22;56302;52.322;5.926;2023-10-08T10:11:50;15.00;82.40
69189;DHT22;56302;52.322;5.926;2023-10-08T10:14:16;15.00;81.70
69189;DHT22;56302;52.322;5.926;2023-10-08T10:16:43;15.00;81.80
69189;DHT22;56302;52.322;5.926;2023-10-08T10:19:20;15.10;82.20
69189;DHT22;56302;52.322;5.926;2023-10-08T10:21:46;15.00;80.00
69189;DHT22;56302;52.322;5.926;2023-10-08T10:24:33;14.90;79.30
69189;DHT22;56302;52.322;5.926;2023-10-08T10:27:15;14.80;80.00
69189;DHT22;56302;52.322;5.926;2023-10-08T10:29:44;14.70;79.90
69189;DHT22;56302;52.322;5.926;2023-10-08T10:32:15;14.60;80.60
69189;DHT22;56302;52.322;5.926;2023-10-08T10:34:42;14.60;79.50
69189;DHT22;56302;52.322;5.926;2023-10-08T10:37:08;14.50;79.70
69189;DHT22;56302;52.322;5.926;2023-10-08T10:39:36;14.50;80.70
69189;DHT22;56302;52.322;5.926;2023-10-08T10:42:05;14.50;80.30
69189;DHT22;56302;52.322;5.926;2023-10-08T10:44:33;14.60;81.40
69189;DHT22;56302;52.322;5.926;2023-10-08T10:47:02;14.80;80.90
69189;DHT22;56302;52.322;5.926;2023-10-08T10:49:44;14.90;80.60
69189;DHT22;56302;52.322;5.926;2023-10-08T10:52:35;14.90;79.60
69189;DHT22;56302;52.322;5.926;2023-10-08T10:55:11;14.80;80.20
69189;DHT22;56302;52.322;5.926;2023-10-08T10:57:40;14.70;79.90
69189;DHT22;56302;52.322;5.926;2023-10-08T11:00:08;14.70;80.70
69189;DHT22;56302;52.322;5.926;2023-10-08T11:02:52;14.80;81.50
69189;DHT22;56302;52.322;5.926;2023-10-08T11:05:28;14.90;80.20
69189;DHT22;56302;52.322;5.926;2023-10-08T11:07:55;15.00;81.70
69189;DHT22;56302;52.322;5.926;2023-10-08T11:10:34;15.20;80.50
69189;DHT22;56302;52.322;5.926;2023-10-08T11:13:00;15.20;78.60
69189;DHT22;56302;52.322;5.926;2023-10-08T11:15:29;15.20;79.30
69189;DHT22;56302;52.322;5.926;2023-10-08T11:18:09;15.30;78.70
69189;DHT22;56302;52.322;5.926;2023-10-08T11:20:35;15.40;78.80
69189;DHT22;56302;52.322;5.926;2023-10-08T11:23:10;15.80;79.70
69189;DHT22;56302;52.322;5.926;2023-10-08T11:25:58;16.10;77.00
69189;DHT22;56302;52.322;5.926;2023-10-08T11:28:28;16.10;76.80
69189;DHT22;56302;52.322;5.926;2023-10-08T11:30:54;16.00;76.80
69189;DHT22;56302;52.322;5.926;2023-10-08T11:33:20;16.00;76.50
69189;DHT22;56302;52.322;5.926;2023-10-08T11:36:02;16.00;75.90
69189;DHT22;56302;52.322;5.926;2023-10-08T11:38:41;15.90;76.30
69189;DHT22;56302;52.322;5.926;2023-10-08T11:41:14;15.80;77.60
69189;DHT22;56302;52.322;5.926;2023-10-08T11:43:54;15.80;77.90
69189;DHT22;56302;52.322;5.926;2023-10-08T11:46:30;15.70;78.10
69189;DHT22;56302;52.322;5.926;2023-10-08T11:49:07;15.70;79.10
69189;DHT22;56302;52.322;5.926;2023-10-08T11:51:37;15.60;79.00
69189;DHT22;56302;52.322;5.926;2023-10-08T11:54:03;15.60;78.90
69189;DHT22;56302;52.322;5.926;2023-10-08T11:56:31;15.70;78.60
69189;DHT22;56302;52.322;5.926;2023-10-08T11:58:59;15.80;78.70
69189;DHT22;56302;52.322;5.926;2023-10-08T12:01:26;15.80;78.80
69189;DHT22;56302;52.322;5.926;2023-10-08T12:03:53;15.90;79.30
69189;DHT22;56302;52.322;5.926;2023-10-08T12:06:23;15.90;78.00
69189;DHT22;56302;52.322;5.926;2023-10-08T12:08:49;15.90;77.30
69189;DHT22;56302;52.322;5.926;2023-10-08T12:11:19;15.90;78.10
69189;DHT22;56302;52.322;5.926;2023-10-08T12:13:48;15.90;77.30
69189;DHT22;56302;52.322;5.926;2023-10-08T12:16:16;15.90;77.70
69189;DHT22;56302;52.322;5.926;2023-10-08T12:18:46;15.90;77.60
69189;DHT22;56302;52.322;5.926;2023-10-08T12:21:14;16.00;77.90
69189;DHT22;56302;52.322;5.926;2023-10-08T12:23:41;16.00;76.50
69189;DHT22;56302;52.322;5.926;2023-10-08T12:26:09;16.00;77.20
69189;DHT22;56302;52.322;5.926;2023-10-08T12:28:35;16.00;75.60
69189;DHT22;56302;52.322;5.926;2023-10-08T12:31:04;16.00;75.80
69189;DHT22;56302;52.322;5.926;2023-10-08T12:33:30;15.90;75.60
69189;DHT22;56302;52.322;5.926;2023-10-08T12:35:57;15.90;76.30
69189;DHT22;56302;52.322;5.926;2023-10-08T12:38:23;16.00;77.30
69189;DHT22;56302;52.322;5.926;2023-10-08T12:40:50;15.90;76.90
69189;DHT22;56302;52.322;5.926;2023-10-08T12:43:22;15.80;76.80
69189;DHT22;56302;52.322;5.926;2023-10-08T12:45:49;15.70;77.50
69189;DHT22;56302;52.322;5.926;2023-10-08T12:48:27;15.60;77.60
69189;DHT22;56302;52.322;5.926;2023-10-08T12:50:53;15.70;78.90
69189;DHT22;56302;52.322;5.926;2023-10-08T12:53:28;15.70;78.20
69189;DHT22;56302;52.322;5.926;2023-10-08T12:56:06;15.80;77.10
69189;DHT22;56302;52.322;5.926;2023-10-08T12:58:33;16.00;78.10
69189;DHT22;56302;52.322;5.926;2023-10-08T13:01:17;16.10;78.10
69189;DHT22;56302;52.322;5.926;2023-10-08T13:03:43;16.10;77.60
69189;DHT22;56302;52.322;5.926;2023-10-08T13:06:17;16.20;77.50
69189;DHT22;56302;52.322;5.926;2023-10-08T13:08:55;16.20;77.50
69189;DHT22;56302;52.322;5.926;2023-10-08T13:11:21;16.20;76.30
69189;DHT22;56302;52.322;5.926;2023-10-08T13:13:51;16.20;75.30
69189;DHT22;56302;52.322;5.926;2023-10-08T13:16:21;16.10;75.60
69189;DHT22;56302;52.322;5.926;2023-10-08T13:18:48;16.10;76.30
69189;DHT22;56302;52.322;5.926;2023-10-08T13:21:14;16.10;77.00
69189;DHT22;56302;52.322;5.926;2023-10-08T13:23:39;16.10;76.60
69189;DHT22;56302;52.322;5.926;2023-10-08T13:26:06;16.10;77.00
69189;DHT22;56302;52.322;5.926;2023-10-08T13:28:33;16.10;76.80
69189;DHT22;56302;52.322;5.926;2023-10-08T13:31:00;16.10;77.00
69189;DHT22;56302;52.322;5.926;2023-10-08T13:33:26;16.10;76.70
69189;DHT22;56302;52.322;5.926;2023-10-08T13:35:52;16.10;77.80
69189;DHT22;56302;52.322;5.926;2023-10-08T13:38:18;16.00;78.20
69189;DHT22;56302;52.322;5.926;2023-10-08T13:40:46;16.10;78.00
69189;DHT22;56302;52.322;5.926;2023-10-08T13:43:31;16.20;79.50
69189;DHT22;56302;52.322;5.926;2023-10-08T13:46:04;16.20;78.40
69189;DHT22;56302;52.322;5.926;2023-10-08T13:48:32;16.30;79.00
69189;DHT22;56302;52.322;5.926;2023-10-08T13:51:08;16.40;79.00
69189;DHT22;56302;52.322;5.926;2023-10-08T13:53:39;16.40;77.80
69189;DHT22;56302;52.322;5.926;2023-10-08T13:56:05;16.30;78.20
69189;DHT22;56302;52.322;5.926;2023-10-08T13:58:31;16.40;77.50
69189;DHT22;56302;52.322;5.926;2023-10-08T14:01:00;16.50;78.00
69189;DHT22;56302;52.322;5.926;2023-10-08T14:03:29;16.70;78.80
69189;DHT22;56302;52.322;5.926;2023-10-08T14:05:59;16.70;77.00
69189;DHT22;56302;52.322;5.926;2023-10-08T14:08:29;16.60;76.80
69189;DHT22;56302;52.322;5.926;2023-10-08T14:10:56;16.60;76.80
69189;DHT22;56302;52.322;5.926;2023-10-08T14:13:29;16.60;77.20
69189;DHT22;56302;52.322;5.926;2023-10-08T14:15:55;16.60;77.50
69189;DHT22;56302;52.322;5.926;2023-10-08T14:18:23;16.60;77.40
69189;DHT22;56302;52.322;5.926;2023-10-08T14:20:53;16.60;78.10
69189;DHT22;56302;52.322;5.926;2023-10-08T14:23:23;16.60;77.70
69189;DHT22;56302;52.322;5.926;2023-10-08T14:25:51;16.60;77.30
69189;DHT22;56302;52.322;5.926;2023-10-08T14:28:17;16.40;77.50
69189;DHT22;56302;52.322;5.926;2023-10-08T14:31:06;16.40;77.50
69189;DHT22;56302;52.322;5.926;2023-10-08T14:33:31;16.40;78.00
69189;DHT22;56302;52.322;5.926;2023-10-08T14:36:07;16.30;77.80
69189;DHT22;56302;52.322;5.926;2023-10-08T14:38:51;16.40;78.50
69189;DHT22;56302;52.322;5.926;2023-10-08T14:41:52;16.40;79.20
69189;DHT22;56302;52.322;5.926;2023-10-08T14:44:36;16.40;79.10
69189;DHT22;56302;52.322;5.926;2023-10-08T14:47:05;16.50;79.10
69189;DHT22;56302;52.322;5.926;2023-10-08T14:49:32;16.50;79.20
69189;DHT22;56302;52.322;5.926;2023-10-08T14:51:59;16.50;79.20
69189;DHT22;56302;52.322;5.926;2023-10-08T14:54:24;16.50;78.70
69189;DHT22;56302;52.322;5.926;2023-10-08T14:56:50;16.40;78.90
69189;DHT22;56302;52.322;5.926;2023-10-08T14:59:16;16.40;79.40
69189;DHT22;56302;52.322;5.926;2023-10-08T15:01:46;16.30;79.50
69189;DHT22;56302;52.322;5.926;2023-10-08T15:04:12;16.20;79.90
69189;DHT22;56302;52.322;5.926;2023-10-08T15:06:38;16.20;79.60
69189;DHT22;56302;52.322;5.926;2023-10-08T15:09:07;16.10;79.80
69189;DHT22;56302;52.322;5.926;2023-10-08T15:11:34;16.10;80.00
69189;DHT22;56302;52.322;5.926;2023-10-08T15:14:04;16.10;80.00
69189;DHT22;56302;52.322;5.926;2023-10-08T15:16:38;16.00;79.90
69189;DHT22;56302;52.322;5.926;2023-10-08T15:19:06;16.00;80.70
69189;DHT22;56302;52.322;5.926;2023-10-08T15:21:37;16.00;80.80
69189;DHT22;56302;52.322;5.926;2023-10-08T15:24:05;16.00;80.90
69189;DHT22;56302;52.322;5.926;2023-10-08T15:26:36;16.00;80.80
69189;DHT22;56302;52.322;5.926;2023-10-08T15:29:01;16.00;81.10
69189;DHT22;56302;52.322;5.926;2023-10-08T15:31:28;15.90;81.20
69189;DHT22;56302;52.322;5.926;2023-10-08T15:33:53;15.90;81.40
69189;DHT22;56302;52.322;5.926;2023-10-08T15:36:19;15.90;81.40
69189;DHT22;56302;52.322;5.926;2023-10-08T15:38:45;15.90;81.60
69189;DHT22;56302;52.322;5.926;2023-10-08T15:41:10;16.00;81.70
69189;DHT22;56302;52.322;5.926;2023-10-08T15:43:36;15.90;82.20
69189;DHT22;56302;52.322;5.926;2023-10-08T15:46:02;15.90;82.10
69189;DHT22;56302;52.322;5.926;2023-10-08T15:48:30;15.80;82.20
69189;DHT22;56302;52.322;5.926;2023-10-08T15:50:56;15.80;82.30
69189;DHT22;56302;52.322;5.926;2023-10-08T15:53:22;15.70;82.30
69189;DHT22;56302;52.322;5.926;2023-10-08T15:55:47;15.70;82.00
69189;DHT22;56302;52.322;5.926;2023-10-08T15:58:13;15.70;82.10
69189;DHT22;56302;52.322;5.926;2023-10-08T16:00:38;15.60;82.10